Terminal Aerodrome Forecast
Issued by NWS Chicago, IL

Home | Current Version | Previous Version | Text Only | Print | Product List | Glossary On
Versions: 1 2 3 4 5 6 7 8 9 10 11 12 13 14 15 16 17 18 19 20 21 22 23 24 25
892
FTUS43 KLOT 191216 AAA
TAFRFD
TAF AMD
KRFD 191216Z 1912/2012 VRB02KT 6SM BR SKC
      TEMPO 1912/1915 3SM BR
     FM191600 13004KT P6SM FEW250
     FM191900 15007KT P6SM SCT250
     FM200200 12006KT P6SM BKN250
     FM201000 14005KT 3SM BR SCT006 BKN250=

USA.gov is the U.S. government's official web portal to all federal, state and local government web resources and services.